sensor_id;sensor_type;location;lat;lon;timestamp;P1;durP1;ratioP1;P2;durP2;ratioP2
18021;SDS011;9136;48.822;7.966;2023-04-24T00:02:14;18.67;;;17.87;;
18021;SDS011;9136;48.822;7.966;2023-04-24T00:05:02;21.37;;;20.47;;
18021;SDS011;9136;48.822;7.966;2023-04-24T00:07:51;18.43;;;17.63;;
18021;SDS011;9136;48.822;7.966;2023-04-24T00:10:40;19.67;;;18.77;;
18021;SDS011;9136;48.822;7.966;2023-04-24T00:13:28;18.00;;;17.20;;
18021;SDS011;9136;48.822;7.966;2023-04-24T00:16:16;17.33;;;16.53;;
18021;SDS011;9136;48.822;7.966;2023-04-24T00:19:06;21.03;;;20.13;;
18021;SDS011;9136;48.822;7.966;2023-04-24T00:21:54;20.47;;;19.57;;
18021;SDS011;9136;48.822;7.966;2023-04-24T00:24:44;19.77;;;18.87;;
18021;SDS011;9136;48.822;7.966;2023-04-24T00:27:33;20.33;;;19.43;;
18021;SDS011;9136;48.822;7.966;2023-04-24T00:30:23;18.13;;;17.33;;
18021;SDS011;9136;48.822;7.966;2023-04-24T00:33:12;18.77;;;17.97;;
18021;SDS011;9136;48.822;7.966;2023-04-24T00:36:01;19.43;;;18.37;;
18021;SDS011;9136;48.822;7.966;2023-04-24T00:38:49;16.60;;;15.90;;
18021;SDS011;9136;48.822;7.966;2023-04-24T00:41:38;19.03;;;18.23;;
18021;SDS011;9136;48.822;7.966;2023-04-24T00:44:26;20.90;;;20.00;;
18021;SDS011;9136;48.822;7.966;2023-04-24T00:47:14;20.10;;;19.20;;
18021;SDS011;9136;48.822;7.966;2023-04-24T00:50:02;19.77;;;18.87;;
18021;SDS011;9136;48.822;7.966;2023-04-24T00:52:50;20.40;;;19.50;;
18021;SDS011;9136;48.822;7.966;2023-04-24T00:55:38;20.07;;;19.17;;
18021;SDS011;9136;48.822;7.966;2023-04-24T00:58:27;20.40;;;19.50;;
18021;SDS011;9136;48.822;7.966;2023-04-24T01:01:19;21.67;;;20.67;;
18021;SDS011;9136;48.822;7.966;2023-04-24T01:04:08;16.80;;;16.00;;
18021;SDS011;9136;48.822;7.966;2023-04-24T01:07:00;18.70;;;17.90;;
18021;SDS011;9136;48.822;7.966;2023-04-24T01:09:48;20.67;;;19.77;;
18021;SDS011;9136;48.822;7.966;2023-04-24T01:12:38;19.63;;;18.73;;
18021;SDS011;9136;48.822;7.966;2023-04-24T01:15:27;20.33;;;19.43;;
18021;SDS011;9136;48.822;7.966;2023-04-24T01:18:15;18.53;;;17.73;;
18021;SDS011;9136;48.822;7.966;2023-04-24T01:21:03;17.83;;;17.03;;
18021;SDS011;9136;48.822;7.966;2023-04-24T01:23:55;19.47;;;18.67;;
18021;SDS011;9136;48.822;7.966;2023-04-24T01:26:43;19.07;;;18.27;;
18021;SDS011;9136;48.822;7.966;2023-04-24T01:29:31;18.80;;;18.00;;
18021;SDS011;9136;48.822;7.966;2023-04-24T01:32:19;17.60;;;16.80;;
18021;SDS011;9136;48.822;7.966;2023-04-24T01:35:08;20.20;;;19.30;;
18021;SDS011;9136;48.822;7.966;2023-04-24T01:37:58;18.67;;;17.87;;
18021;SDS011;9136;48.822;7.966;2023-04-24T01:40:48;20.10;;;19.20;;
18021;SDS011;9136;48.822;7.966;2023-04-24T01:43:37;17.20;;;16.50;;
18021;SDS011;9136;48.822;7.966;2023-04-24T01:46:28;17.17;;;16.43;;
18021;SDS011;9136;48.822;7.966;2023-04-24T01:49:17;19.40;;;18.60;;
18021;SDS011;9136;48.822;7.966;2023-04-24T01:52:15;20.30;;;19.40;;
18021;SDS011;9136;48.822;7.966;2023-04-24T01:55:09;18.13;;;17.33;;
18021;SDS011;9136;48.822;7.966;2023-04-24T01:58:05;18.30;;;17.50;;
18021;SDS011;9136;48.822;7.966;2023-04-24T02:00:57;18.37;;;17.57;;
18021;SDS011;9136;48.822;7.966;2023-04-24T02:03:48;17.00;;;16.23;;
18021;SDS011;9136;48.822;7.966;2023-04-24T02:06:37;18.83;;;18.03;;
18021;SDS011;9136;48.822;7.966;2023-04-24T02:09:26;19.27;;;18.47;;
18021;SDS011;9136;48.822;7.966;2023-04-24T02:12:14;18.23;;;17.43;;
18021;SDS011;9136;48.822;7.966;2023-04-24T02:15:05;19.20;;;18.40;;
18021;SDS011;9136;48.822;7.966;2023-04-24T02:17:53;21.10;;;20.20;;
18021;SDS011;9136;48.822;7.966;2023-04-24T02:20:41;17.33;;;16.63;;
18021;SDS011;9136;48.822;7.966;2023-04-24T02:23:30;19.70;;;18.80;;
18021;SDS011;9136;48.822;7.966;2023-04-24T02:26:18;19.97;;;19.07;;
18021;SDS011;9136;48.822;7.966;2023-04-24T02:29:06;19.80;;;18.90;;
18021;SDS011;9136;48.822;7.966;2023-04-24T02:31:55;21.60;;;20.60;;
18021;SDS011;9136;48.822;7.966;2023-04-24T02:34:43;20.10;;;19.20;;
18021;SDS011;9136;48.822;7.966;2023-04-24T02:37:30;24.63;;;23.53;;
18021;SDS011;9136;48.822;7.966;2023-04-24T02:40:18;19.50;;;18.67;;
18021;SDS011;9136;48.822;7.966;2023-04-24T02:43:06;18.43;;;17.57;;
18021;SDS011;9136;48.822;7.966;2023-04-24T02:45:55;18.27;;;17.47;;
18021;SDS011;9136;48.822;7.966;2023-04-24T02:48:46;19.03;;;18.20;;
18021;SDS011;9136;48.822;7.966;2023-04-24T02:51:34;18.10;;;17.30;;
18021;SDS011;9136;48.822;7.966;2023-04-24T02:54:24;21.03;;;20.13;;
18021;SDS011;9136;48.822;7.966;2023-04-24T02:57:11;20.70;;;19.80;;
18021;SDS011;9136;48.822;7.966;2023-04-24T02:59:59;21.10;;;20.10;;
18021;SDS011;9136;48.822;7.966;2023-04-24T03:02:52;22.37;;;21.37;;
18021;SDS011;9136;48.822;7.966;2023-04-24T03:05:42;20.27;;;19.27;;
18021;SDS011;9136;48.822;7.966;2023-04-24T03:08:29;20.10;;;19.20;;
18021;SDS011;9136;48.822;7.966;2023-04-24T03:11:17;21.20;;;20.30;;
18021;SDS011;9136;48.822;7.966;2023-04-24T03:14:05;19.57;;;18.70;;
18021;SDS011;9136;48.822;7.966;2023-04-24T03:16:53;19.30;;;18.47;;
18021;SDS011;9136;48.822;7.966;2023-04-24T03:19:40;20.10;;;19.20;;
18021;SDS011;9136;48.822;7.966;2023-04-24T03:22:30;20.20;;;19.30;;
18021;SDS011;9136;48.822;7.966;2023-04-24T03:25:18;18.83;;;17.97;;
18021;SDS011;9136;48.822;7.966;2023-04-24T03:28:06;19.07;;;18.27;;
18021;SDS011;9136;48.822;7.966;2023-04-24T03:30:54;21.83;;;20.83;;
18021;SDS011;9136;48.822;7.966;2023-04-24T03:33:41;18.83;;;17.93;;
18021;SDS011;9136;48.822;7.966;2023-04-24T03:36:29;18.50;;;17.70;;
18021;SDS011;9136;48.822;7.966;2023-04-24T03:39:19;19.40;;;18.50;;
18021;SDS011;9136;48.822;7.966;2023-04-24T03:42:06;19.90;;;18.97;;
18021;SDS011;9136;48.822;7.966;2023-04-24T03:44:54;16.90;;;16.20;;
18021;SDS011;9136;48.822;7.966;2023-04-24T03:47:42;18.17;;;17.37;;
18021;SDS011;9136;48.822;7.966;2023-04-24T03:50:29;19.97;;;19.07;;
18021;SDS011;9136;48.822;7.966;2023-04-24T03:53:17;19.90;;;19.00;;
18021;SDS011;9136;48.822;7.966;2023-04-24T03:56:07;21.57;;;20.40;;
18021;SDS011;9136;48.822;7.966;2023-04-24T03:58:56;20.20;;;19.30;;
18021;SDS011;9136;48.822;7.966;2023-04-24T04:01:43;21.50;;;20.50;;
18021;SDS011;9136;48.822;7.966;2023-04-24T04:04:32;19.77;;;18.87;;
18021;SDS011;9136;48.822;7.966;2023-04-24T04:07:20;17.50;;;16.73;;
18021;SDS011;9136;48.822;7.966;2023-04-24T04:10:07;19.43;;;18.60;;
18021;SDS011;9136;48.822;7.966;2023-04-24T04:12:57;19.63;;;18.80;;
18021;SDS011;9136;48.822;7.966;2023-04-24T04:15:46;19.63;;;18.77;;
18021;SDS011;9136;48.822;7.966;2023-04-24T04:18:34;19.57;;;18.47;;
18021;SDS011;9136;48.822;7.966;2023-04-24T04:21:22;19.53;;;18.67;;
18021;SDS011;9136;48.822;7.966;2023-04-24T04:24:10;20.03;;;19.13;;
18021;SDS011;9136;48.822;7.966;2023-04-24T04:26:57;18.53;;;17.73;;
18021;SDS011;9136;48.822;7.966;2023-04-24T04:29:48;19.63;;;18.73;;
18021;SDS011;9136;48.822;7.966;2023-04-24T04:32:38;19.83;;;18.93;;
18021;SDS011;9136;48.822;7.966;2023-04-24T04:35:25;18.37;;;17.57;;
18021;SDS011;9136;48.822;7.966;2023-04-24T04:38:13;17.83;;;17.03;;
18021;SDS011;9136;48.822;7.966;2023-04-24T04:41:02;20.30;;;19.40;;
18021;SDS011;9136;48.822;7.966;2023-04-24T04:43:50;18.80;;;18.00;;
18021;SDS011;9136;48.822;7.966;2023-04-24T04:46:40;20.20;;;19.30;;
18021;SDS011;9136;48.822;7.966;2023-04-24T04:49:28;21.27;;;20.37;;
18021;SDS011;9136;48.822;7.966;2023-04-24T04:52:16;18.57;;;17.77;;
18021;SDS011;9136;48.822;7.966;2023-04-24T04:55:05;19.57;;;18.70;;
18021;SDS011;9136;48.822;7.966;2023-04-24T04:57:54;18.80;;;18.00;;
18021;SDS011;9136;48.822;7.966;2023-04-24T05:00:43;20.10;;;19.20;;
18021;SDS011;9136;48.822;7.966;2023-04-24T05:03:32;21.87;;;20.87;;
18021;SDS011;9136;48.822;7.966;2023-04-24T05:06:20;20.50;;;19.60;;
18021;SDS011;9136;48.822;7.966;2023-04-24T05:09:08;22.73;;;21.73;;
18021;SDS011;9136;48.822;7.966;2023-04-24T05:11:56;19.77;;;18.87;;
18021;SDS011;9136;48.822;7.966;2023-04-24T05:14:43;18.87;;;18.07;;
18021;SDS011;9136;48.822;7.966;2023-04-24T05:17:31;18.53;;;17.73;;
18021;SDS011;9136;48.822;7.966;2023-04-24T05:20:21;17.73;;;16.97;;
18021;SDS011;9136;48.822;7.966;2023-04-24T05:23:09;21.03;;;20.13;;
18021;SDS011;9136;48.822;7.966;2023-04-24T05:25:57;19.57;;;18.70;;
18021;SDS011;9136;48.822;7.966;2023-04-24T05:28:45;19.60;;;18.70;;
18021;SDS011;9136;48.822;7.966;2023-04-24T05:31:33;20.43;;;19.53;;
18021;SDS011;9136;48.822;7.966;2023-04-24T05:34:21;21.40;;;20.50;;
18021;SDS011;9136;48.822;7.966;2023-04-24T05:37:10;20.40;;;19.50;;
18021;SDS011;9136;48.822;7.966;2023-04-24T05:39:58;20.20;;;19.30;;
18021;SDS011;9136;48.822;7.966;2023-04-24T05:42:47;18.73;;;17.93;;
18021;SDS011;9136;48.822;7.966;2023-04-24T05:45:34;19.77;;;18.87;;
18021;SDS011;9136;48.822;7.966;2023-04-24T05:48:25;20.53;;;19.63;;
18021;SDS011;9136;48.822;7.966;2023-04-24T05:51:12;18.90;;;18.10;;
18021;SDS011;9136;48.822;7.966;2023-04-24T05:54:02;19.67;;;18.77;;
18021;SDS011;9136;48.822;7.966;2023-04-24T05:56:50;20.80;;;19.87;;
18021;SDS011;9136;48.822;7.966;2023-04-24T05:59:38;19.67;;;18.77;;
18021;SDS011;9136;48.822;7.966;2023-04-24T06:02:26;18.80;;;17.90;;
18021;SDS011;9136;48.822;7.966;2023-04-24T06:05:14;19.80;;;18.90;;
18021;SDS011;9136;48.822;7.966;2023-04-24T06:08:03;18.03;;;17.23;;
18021;SDS011;9136;48.822;7.966;2023-04-24T06:10:52;19.83;;;18.93;;
18021;SDS011;9136;48.822;7.966;2023-04-24T06:13:40;21.60;;;20.60;;
18021;SDS011;9136;48.822;7.966;2023-04-24T06:16:28;19.87;;;18.97;;
18021;SDS011;9136;48.822;7.966;2023-04-24T06:19:17;19.97;;;19.07;;
18021;SDS011;9136;48.822;7.966;2023-04-24T06:22:05;17.13;;;16.43;;
18021;SDS011;9136;48.822;7.966;2023-04-24T06:24:54;20.53;;;19.47;;
18021;SDS011;9136;48.822;7.966;2023-04-24T06:27:44;17.70;;;16.90;;
18021;SDS011;9136;48.822;7.966;2023-04-24T06:30:31;16.80;;;16.00;;
18021;SDS011;9136;48.822;7.966;2023-04-24T06:33:19;20.93;;;20.03;;
18021;SDS011;9136;48.822;7.966;2023-04-24T06:36:07;16.20;;;15.50;;
18021;SDS011;9136;48.822;7.966;2023-04-24T06:38:55;19.03;;;18.23;;
18021;SDS011;9136;48.822;7.966;2023-04-24T06:41:45;20.97;;;19.97;;
18021;SDS011;9136;48.822;7.966;2023-04-24T06:44:34;19.03;;;17.97;;
18021;SDS011;9136;48.822;7.966;2023-04-24T06:47:28;16.67;;;15.97;;
18021;SDS011;9136;48.822;7.966;2023-04-24T06:50:22;19.60;;;18.73;;
18021;SDS011;9136;48.822;7.966;2023-04-24T06:53:09;19.40;;;18.57;;
18021;SDS011;9136;48.822;7.966;2023-04-24T06:55:58;17.70;;;16.90;;
18021;SDS011;9136;48.822;7.966;2023-04-24T06:58:46;18.53;;;17.73;;
18021;SDS011;9136;48.822;7.966;2023-04-24T07:01:36;19.13;;;18.30;;
18021;SDS011;9136;48.822;7.966;2023-04-24T07:04:24;19.53;;;18.63;;
18021;SDS011;9136;48.822;7.966;2023-04-24T07:07:14;16.47;;;15.77;;
18021;SDS011;9136;48.822;7.966;2023-04-24T07:10:05;18.73;;;17.90;;
18021;SDS011;9136;48.822;7.966;2023-04-24T07:12:54;15.00;;;14.30;;
18021;SDS011;9136;48.822;7.966;2023-04-24T07:15:48;18.30;;;17.50;;
18021;SDS011;9136;48.822;7.966;2023-04-24T07:18:40;17.80;;;17.00;;
18021;SDS011;9136;48.822;7.966;2023-04-24T07:21:31;16.30;;;15.60;;
18021;SDS011;9136;48.822;7.966;2023-04-24T07:24:18;17.37;;;16.60;;
18021;SDS011;9136;48.822;7.966;2023-04-24T07:27:10;17.63;;;16.83;;
18021;SDS011;9136;48.822;7.966;2023-04-24T07:30:11;18.30;;;17.50;;
18021;SDS011;9136;48.822;7.966;2023-04-24T07:33:34;16.73;;;15.93;;
18021;SDS011;9136;48.822;7.966;2023-04-24T07:36:24;18.47;;;17.67;;
18021;SDS011;9136;48.822;7.966;2023-04-24T07:39:27;17.10;;;16.37;;
18021;SDS011;9136;48.822;7.966;2023-04-24T07:42:31;18.20;;;17.40;;
18021;SDS011;9136;48.822;7.966;2023-04-24T07:45:40;16.43;;;15.73;;
18021;SDS011;9136;48.822;7.966;2023-04-24T07:48:36;19.17;;;18.10;;
18021;SDS011;9136;48.822;7.966;2023-04-24T07:51:26;16.50;;;15.80;;
18021;SDS011;9136;48.822;7.966;2023-04-24T07:54:17;16.60;;;15.90;;
18021;SDS011;9136;48.822;7.966;2023-04-24T07:57:09;18.10;;;17.23;;
18021;SDS011;9136;48.822;7.966;2023-04-24T07:59:57;16.97;;;16.27;;
18021;SDS011;9136;48.822;7.966;2023-04-24T08:02:45;16.13;;;15.43;;
18021;SDS011;9136;48.822;7.966;2023-04-24T08:05:47;14.20;;;13.60;;
18021;SDS011;9136;48.822;7.966;2023-04-24T08:08:39;16.17;;;15.47;;
18021;SDS011;9136;48.822;7.966;2023-04-24T08:11:28;18.97;;;18.17;;
18021;SDS011;9136;48.822;7.966;2023-04-24T08:14:22;16.03;;;15.33;;
18021;SDS011;9136;48.822;7.966;2023-04-24T08:17:14;15.70;;;15.00;;
18021;SDS011;9136;48.822;7.966;2023-04-24T08:20:04;15.80;;;15.10;;
18021;SDS011;9136;48.822;7.966;2023-04-24T08:22:56;16.47;;;15.77;;
18021;SDS011;9136;48.822;7.966;2023-04-24T08:25:59;16.53;;;15.83;;
18021;SDS011;9136;48.822;7.966;2023-04-24T08:28:51;17.17;;;16.37;;
18021;SDS011;9136;48.822;7.966;2023-04-24T08:31:48;17.03;;;16.30;;
18021;SDS011;9136;48.822;7.966;2023-04-24T08:34:44;17.20;;;16.40;;
18021;SDS011;9136;48.822;7.966;2023-04-24T08:37:44;16.53;;;15.83;;
18021;SDS011;9136;48.822;7.966;2023-04-24T08:40:39;16.53;;;15.83;;
18021;SDS011;9136;48.822;7.966;2023-04-24T08:43:45;20.03;;;19.13;;
18021;SDS011;9136;48.822;7.966;2023-04-24T08:46:34;16.67;;;15.87;;
18021;SDS011;9136;48.822;7.966;2023-04-24T08:56:57;15.60;;;14.90;;
18021;SDS011;9136;48.822;7.966;2023-04-24T09:07:30;17.57;;;16.77;;
18021;SDS011;9136;48.822;7.966;2023-04-24T09:10:39;14.30;;;13.70;;
18021;SDS011;9136;48.822;7.966;2023-04-24T09:13:30;14.70;;;14.03;;
18021;SDS011;9136;48.822;7.966;2023-04-24T09:16:31;15.13;;;14.43;;
18021;SDS011;9136;48.822;7.966;2023-04-24T09:19:37;15.27;;;14.57;;
18021;SDS011;9136;48.822;7.966;2023-04-24T09:22:26;16.53;;;15.77;;
18021;SDS011;9136;48.822;7.966;2023-04-24T09:25:21;15.80;;;15.03;;
18021;SDS011;9136;48.822;7.966;2023-04-24T09:28:25;17.60;;;16.80;;
18021;SDS011;9136;48.822;7.966;2023-04-24T09:31:14;15.67;;;14.97;;
18021;SDS011;9136;48.822;7.966;2023-04-24T09:34:34;16.33;;;15.63;;
18021;SDS011;9136;48.822;7.966;2023-04-24T09:37:34;16.33;;;15.63;;
18021;SDS011;9136;48.822;7.966;2023-04-24T09:40:27;19.83;;;18.97;;
18021;SDS011;9136;48.822;7.966;2023-04-24T09:43:19;16.53;;;15.83;;
18021;SDS011;9136;48.822;7.966;2023-04-24T09:46:16;15.50;;;14.80;;
18021;SDS011;9136;48.822;7.966;2023-04-24T09:49:22;17.50;;;16.73;;
18021;SDS011;9136;48.822;7.966;2023-04-24T09:52:11;16.87;;;16.17;;
18021;SDS011;9136;48.822;7.966;2023-04-24T10:05:42;16.67;;;15.97;;
18021;SDS011;9136;48.822;7.966;2023-04-24T10:08:36;16.23;;;15.53;;
18021;SDS011;9136;48.822;7.966;2023-04-24T10:11:31;16.90;;;16.20;;
18021;SDS011;9136;48.822;7.966;2023-04-24T10:14:25;16.80;;;16.00;;
18021;SDS011;9136;48.822;7.966;2023-04-24T10:17:23;14.77;;;14.17;;
18021;SDS011;9136;48.822;7.966;2023-04-24T10:20:17;16.27;;;15.57;;
18021;SDS011;9136;48.822;7.966;2023-04-24T10:23:06;16.77;;;16.07;;
18021;SDS011;9136;48.822;7.966;2023-04-24T10:25:59;16.17;;;15.47;;
18021;SDS011;9136;48.822;7.966;2023-04-24T10:28:55;15.13;;;14.43;;
18021;SDS011;9136;48.822;7.966;2023-04-24T10:32:01;15.83;;;15.13;;
18021;SDS011;9136;48.822;7.966;2023-04-24T10:34:52;17.30;;;16.50;;
18021;SDS011;9136;48.822;7.966;2023-04-24T10:37:44;16.53;;;15.83;;
18021;SDS011;9136;48.822;7.966;2023-04-24T10:40:35;16.10;;;15.40;;
18021;SDS011;9136;48.822;7.966;2023-04-24T10:43:25;17.27;;;16.53;;
18021;SDS011;9136;48.822;7.966;2023-04-24T10:46:24;15.50;;;14.80;;
18021;SDS011;9136;48.822;7.966;2023-04-24T10:49:18;17.13;;;16.33;;
18021;SDS011;9136;48.822;7.966;2023-04-24T10:52:20;16.10;;;15.40;;
18021;SDS011;9136;48.822;7.966;2023-04-24T10:55:08;17.77;;;16.97;;
18021;SDS011;9136;48.822;7.966;2023-04-24T10:58:02;13.73;;;13.13;;
18021;SDS011;9136;48.822;7.966;2023-04-24T11:00:57;15.47;;;14.77;;
18021;SDS011;9136;48.822;7.966;2023-04-24T11:07:21;15.97;;;15.27;;
18021;SDS011;9136;48.822;7.966;2023-04-24T11:10:14;18.13;;;17.33;;
18021;SDS011;9136;48.822;7.966;2023-04-24T11:13:22;17.40;;;16.60;;
18021;SDS011;9136;48.822;7.966;2023-04-24T11:16:21;16.80;;;16.10;;
18021;SDS011;9136;48.822;7.966;2023-04-24T11:19:23;16.47;;;15.77;;
18021;SDS011;9136;48.822;7.966;2023-04-24T11:22:13;17.63;;;16.83;;
18021;SDS011;9136;48.822;7.966;2023-04-24T11:25:13;17.33;;;16.53;;
18021;SDS011;9136;48.822;7.966;2023-04-24T11:28:14;16.60;;;15.90;;
18021;SDS011;9136;48.822;7.966;2023-04-24T11:34:24;16.77;;;15.97;;
18021;SDS011;9136;48.822;7.966;2023-04-24T11:37:17;17.90;;;17.10;;
18021;SDS011;9136;48.822;7.966;2023-04-24T11:40:06;17.43;;;16.57;;
18021;SDS011;9136;48.822;7.966;2023-04-24T11:42:59;16.53;;;15.80;;
18021;SDS011;9136;48.822;7.966;2023-04-24T11:45:49;17.67;;;16.87;;
18021;SDS011;9136;48.822;7.966;2023-04-24T11:48:44;15.77;;;15.07;;
18021;SDS011;9136;48.822;7.966;2023-04-24T11:51:35;17.77;;;16.97;;
18021;SDS011;9136;48.822;7.966;2023-04-24T11:54:23;15.57;;;14.87;;
18021;SDS011;9136;48.822;7.966;2023-04-24T11:57:12;16.30;;;15.60;;
18021;SDS011;9136;48.822;7.966;2023-04-24T12:00:16;18.07;;;17.17;;
18021;SDS011;9136;48.822;7.966;2023-04-24T12:03:13;15.50;;;14.83;;
18021;SDS011;9136;48.822;7.966;2023-04-24T12:06:04;15.50;;;14.80;;
18021;SDS011;9136;48.822;7.966;2023-04-24T12:08:56;15.07;;;14.43;;
18021;SDS011;9136;48.822;7.966;2023-04-24T12:11:56;15.63;;;14.93;;
18021;SDS011;9136;48.822;7.966;2023-04-24T12:14:52;17.80;;;17.00;;
18021;SDS011;9136;48.822;7.966;2023-04-24T12:17:44;17.80;;;16.80;;
18021;SDS011;9136;48.822;7.966;2023-04-24T12:20:40;14.37;;;13.67;;
18021;SDS011;9136;48.822;7.966;2023-04-24T12:23:37;17.80;;;17.00;;
18021;SDS011;9136;48.822;7.966;2023-04-24T12:26:59;15.67;;;14.97;;
18021;SDS011;9136;48.822;7.966;2023-04-24T12:29:55;15.43;;;14.73;;
18021;SDS011;9136;48.822;7.966;2023-04-24T12:36:09;14.87;;;14.27;;
18021;SDS011;9136;48.822;7.966;2023-04-24T12:39:13;15.93;;;15.23;;
18021;SDS011;9136;48.822;7.966;2023-04-24T12:42:05;15.67;;;14.97;;
18021;SDS011;9136;48.822;7.966;2023-04-24T12:45:10;16.97;;;16.23;;
18021;SDS011;9136;48.822;7.966;2023-04-24T12:48:36;16.50;;;15.80;;
18021;SDS011;9136;48.822;7.966;2023-04-24T12:51:34;15.20;;;14.50;;
18021;SDS011;9136;48.822;7.966;2023-04-24T12:54:32;17.73;;;16.93;;
18021;SDS011;9136;48.822;7.966;2023-04-24T12:57:31;16.10;;;15.30;;
18021;SDS011;9136;48.822;7.966;2023-04-24T13:01:54;13.83;;;13.23;;
18021;SDS011;9136;48.822;7.966;2023-04-24T13:04:24;14.83;;;14.23;;
18021;SDS011;9136;48.822;7.966;2023-04-24T13:07:31;15.47;;;14.77;;
18021;SDS011;9136;48.822;7.966;2023-04-24T13:10:29;15.47;;;14.77;;
18021;SDS011;9136;48.822;7.966;2023-04-24T13:13:31;16.13;;;15.07;;
18021;SDS011;9136;48.822;7.966;2023-04-24T13:16:20;16.50;;;15.80;;
18021;SDS011;9136;48.822;7.966;2023-04-24T13:19:20;15.00;;;14.30;;
18021;SDS011;9136;48.822;7.966;2023-04-24T13:22:25;15.97;;;15.27;;
18021;SDS011;9136;48.822;7.966;2023-04-24T13:25:30;16.80;;;16.10;;
18021;SDS011;9136;48.822;7.966;2023-04-24T13:28:48;14.63;;;14.03;;
18021;SDS011;9136;48.822;7.966;2023-04-24T13:32:38;15.33;;;14.67;;
18021;SDS011;9136;48.822;7.966;2023-04-24T13:43:33;15.73;;;15.03;;
18021;SDS011;9136;48.822;7.966;2023-04-24T13:46:32;15.73;;;15.03;;
18021;SDS011;9136;48.822;7.966;2023-04-24T13:49:36;13.37;;;12.77;;
18021;SDS011;9136;48.822;7.966;2023-04-24T13:52:24;14.77;;;14.13;;
18021;SDS011;9136;48.822;7.966;2023-04-24T13:55:34;16.00;;;15.30;;
18021;SDS011;9136;48.822;7.966;2023-04-24T13:58:27;15.23;;;14.57;;
18021;SDS011;9136;48.822;7.966;2023-04-24T14:01:25;16.97;;;16.17;;
18021;SDS011;9136;48.822;7.966;2023-04-24T14:04:21;14.93;;;14.23;;
18021;SDS011;9136;48.822;7.966;2023-04-24T14:07:18;15.17;;;14.53;;
18021;SDS011;9136;48.822;7.966;2023-04-24T14:10:11;17.03;;;16.27;;
18021;SDS011;9136;48.822;7.966;2023-04-24T14:13:03;16.53;;;15.83;;
18021;SDS011;9136;48.822;7.966;2023-04-24T14:15:55;16.57;;;15.87;;
18021;SDS011;9136;48.822;7.966;2023-04-24T14:18:44;16.47;;;15.77;;
18021;SDS011;9136;48.822;7.966;2023-04-24T14:25:30;13.83;;;13.23;;
18021;SDS011;9136;48.822;7.966;2023-04-24T14:32:11;14.88;;;14.18;;
18021;SDS011;9136;48.822;7.966;2023-04-24T14:35:09;13.18;;;12.60;;
18021;SDS011;9136;48.822;7.966;2023-04-24T14:37:57;16.03;;;15.33;;
18021;SDS011;9136;48.822;7.966;2023-04-24T14:40:45;15.07;;;14.37;;
18021;SDS011;9136;48.822;7.966;2023-04-24T14:43:38;13.63;;;13.03;;
18021;SDS011;9136;48.822;7.966;2023-04-24T14:46:27;14.37;;;13.77;;
18021;SDS011;9136;48.822;7.966;2023-04-24T14:49:17;14.07;;;13.37;;
18021;SDS011;9136;48.822;7.966;2023-04-24T14:52:09;14.67;;;14.07;;
18021;SDS011;9136;48.822;7.966;2023-04-24T14:55:22;15.87;;;15.17;;
18021;SDS011;9136;48.822;7.966;2023-04-24T14:58:20;15.10;;;14.50;;
18021;SDS011;9136;48.822;7.966;2023-04-24T15:01:18;14.57;;;13.97;;
18021;SDS011;9136;48.822;7.966;2023-04-24T15:11:02;14.13;;;13.53;;
18021;SDS011;9136;48.822;7.966;2023-04-24T15:14:20;13.70;;;13.10;;
18021;SDS011;9136;48.822;7.966;2023-04-24T15:17:13;14.25;;;13.65;;
18021;SDS011;9136;48.822;7.966;2023-04-24T15:20:04;13.50;;;12.90;;
18021;SDS011;9136;48.822;7.966;2023-04-24T15:23:03;13.70;;;13.10;;
18021;SDS011;9136;48.822;7.966;2023-04-24T15:25:53;13.73;;;13.13;;
18021;SDS011;9136;48.822;7.966;2023-04-24T15:28:45;14.90;;;14.30;;
18021;SDS011;9136;48.822;7.966;2023-04-24T15:31:40;14.30;;;13.70;;
18021;SDS011;9136;48.822;7.966;2023-04-24T15:34:28;12.83;;;12.30;;
18021;SDS011;9136;48.822;7.966;2023-04-24T15:37:42;14.53;;;13.93;;
18021;SDS011;9136;48.822;7.966;2023-04-24T15:40:43;15.00;;;14.40;;
18021;SDS011;9136;48.822;7.966;2023-04-24T15:43:44;15.10;;;14.47;;
18021;SDS011;9136;48.822;7.966;2023-04-24T15:46:34;13.60;;;13.00;;
18021;SDS011;9136;48.822;7.966;2023-04-24T15:49:35;12.37;;;11.87;;
18021;SDS011;9136;48.822;7.966;2023-04-24T15:52:23;13.53;;;12.93;;
18021;SDS011;9136;48.822;7.966;2023-04-24T15:55:14;14.13;;;13.53;;
18021;SDS011;9136;48.822;7.966;2023-04-24T15:58:08;14.63;;;13.93;;
18021;SDS011;9136;48.822;7.966;2023-04-24T16:00:57;14.27;;;13.67;;
18021;SDS011;9136;48.822;7.966;2023-04-24T16:03:45;14.73;;;14.13;;
18021;SDS011;9136;48.822;7.966;2023-04-24T16:06:33;14.00;;;13.30;;
18021;SDS011;9136;48.822;7.966;2023-04-24T16:09:23;13.37;;;12.80;;
18021;SDS011;9136;48.822;7.966;2023-04-24T16:12:11;15.60;;;14.90;;
18021;SDS011;9136;48.822;7.966;2023-04-24T16:18:01;13.87;;;13.27;;
18021;SDS011;9136;48.822;7.966;2023-04-24T16:20:59;13.73;;;13.10;;
18021;SDS011;9136;48.822;7.966;2023-04-24T16:23:57;13.93;;;13.33;;
18021;SDS011;9136;48.822;7.966;2023-04-24T16:27:01;16.00;;;15.30;;
18021;SDS011;9136;48.822;7.966;2023-04-24T16:29:51;15.40;;;14.70;;
18021;SDS011;9136;48.822;7.966;2023-04-24T16:32:41;15.67;;;14.90;;
18021;SDS011;9136;48.822;7.966;2023-04-24T16:38:42;13.53;;;12.80;;
18021;SDS011;9136;48.822;7.966;2023-04-24T16:41:30;12.33;;;11.83;;
18021;SDS011;9136;48.822;7.966;2023-04-24T16:44:19;14.23;;;13.63;;
18021;SDS011;9136;48.822;7.966;2023-04-24T16:47:07;14.13;;;13.53;;
18021;SDS011;9136;48.822;7.966;2023-04-24T16:49:59;13.13;;;12.53;;
18021;SDS011;9136;48.822;7.966;2023-04-24T17:03:35;16.23;;;15.33;;
18021;SDS011;9136;48.822;7.966;2023-04-24T17:06:38;13.53;;;12.93;;
18021;SDS011;9136;48.822;7.966;2023-04-24T17:09:32;15.33;;;14.63;;
18021;SDS011;9136;48.822;7.966;2023-04-24T17:12:21;13.60;;;13.00;;
18021;SDS011;9136;48.822;7.966;2023-04-24T17:15:10;15.50;;;14.80;;
18021;SDS011;9136;48.822;7.966;2023-04-24T17:21:14;16.07;;;15.37;;
18021;SDS011;9136;48.822;7.966;2023-04-24T17:24:11;15.17;;;14.47;;
18021;SDS011;9136;48.822;7.966;2023-04-24T17:27:21;15.37;;;14.70;;
18021;SDS011;9136;48.822;7.966;2023-04-24T17:30:11;16.13;;;15.43;;
18021;SDS011;9136;48.822;7.966;2023-04-24T17:33:03;15.90;;;15.20;;
18021;SDS011;9136;48.822;7.966;2023-04-24T17:36:10;16.33;;;15.63;;
18021;SDS011;9136;48.822;7.966;2023-04-24T17:39:12;16.53;;;15.83;;
18021;SDS011;9136;48.822;7.966;2023-04-24T17:42:01;16.53;;;15.53;;
18021;SDS011;9136;48.822;7.966;2023-04-24T17:44:49;16.30;;;15.60;;
18021;SDS011;9136;48.822;7.966;2023-04-24T17:47:37;14.83;;;14.13;;
18021;SDS011;9136;48.822;7.966;2023-04-24T17:50:32;15.80;;;15.10;;
18021;SDS011;9136;48.822;7.966;2023-04-24T17:53:34;17.57;;;16.77;;
18021;SDS011;9136;48.822;7.966;2023-04-24T17:56:36;16.40;;;15.70;;
18021;SDS011;9136;48.822;7.966;2023-04-24T17:59:30;14.90;;;14.30;;
18021;SDS011;9136;48.822;7.966;2023-04-24T18:02:23;16.37;;;15.67;;
18021;SDS011;9136;48.822;7.966;2023-04-24T18:05:14;16.50;;;15.73;;
18021;SDS011;9136;48.822;7.966;2023-04-24T18:08:06;16.73;;;16.03;;
18021;SDS011;9136;48.822;7.966;2023-04-24T18:11:00;15.93;;;15.23;;
18021;SDS011;9136;48.822;7.966;2023-04-24T18:13:49;16.93;;;16.17;;
18021;SDS011;9136;48.822;7.966;2023-04-24T18:16:44;15.47;;;14.77;;
18021;SDS011;9136;48.822;7.966;2023-04-24T18:19:33;17.07;;;16.30;;
18021;SDS011;9136;48.822;7.966;2023-04-24T18:22:23;15.80;;;15.10;;
18021;SDS011;9136;48.822;7.966;2023-04-24T18:25:14;15.37;;;14.67;;